Valentine, NE

6:33 AM CDT on July 10, 2014 (GMT -0500)
Miller Field (KVTN) Elev 2598 ft | 42.86 °N, 100.55 °W | Change Station

Current weather conditions updated 41 minutes ago

Clear
Clear
62 °F
Feels Like 62 °F
N
4
Wind Variable Wind from SSE

Today is forecast to be Much Warmer than yesterday. Thunderstorms early tonight.

Today
High -- | Low -- °F
--% Chance of Precip.
Yesterday
High -- | Low -- °F
Precip. -- in
6:13 AM 9:21 PM
Waxing Gibbous, 94% visible
Pressure 29.91 in
Visibility 9.0 miles
Clouds Clear
Dew Point 60 °F
Humidity 93%
Rainfall 0.00 in
Snow Depth Not available.
UV 0 out of 12
Pollen 4.10 out of 12
Air Quality Not available.
Flu Activity Sporadic
METAR KVTN 101052Z AUTO 15003KT 9SM CLR 17/16 A2995 RMK AO2 SLP128 T01670156

More Conditions Fewer Conditions

Pressure 29.91 in
Visibility 9.0 miles
Clouds Clear
Dew Point 60 °F
Humidity 93%
Rainfall 0.00 in
Snow Depth Not available.
UV 0 out of 12
Pollen 4.10 out of 12
Air Quality Not available.
Flu Activity Sporadic
METAR KVTN 101052Z AUTO 15003KT 9SM CLR 17/16 A2995 RMK AO2 SLP128 T01670156

More Conditions Fewer Conditions

10-Day Weather Forecast

Almanac

Astronomy

Jul. 10, 2014 Rise Set
Actual Time 6:13 AM CDT 9:21 PM CDT
Civil Twilight 5:38 AM CDT 9:55 PM CDT
Nautical Twilight 4:54 AM CDT 10:40 PM CDT
Astronomical Twilight 4:01 AM CDT 11:32 PM CDT
Moon 7:34 PM CDT 4:27 AM CDT
Length of Visible Light 16h 17m
Length of Day
15h 08m
Tomorrow will be 1m 16s shorter.
Waxing Gibbous, 94% of the Moon is Illuminated
Today
Waxing Gibbous
Jul 12
Full
Jul 18
Last Quarter
Jul 26
New
Aug 3
First Quarter

Today's Extremes

State Highs State Lows

Community

WunderPhotos

Upload Photos

1,732,096 photos uploaded!

Nearby

Snow Depth

Station Depth Elevation
No new snow has been reported.

Earthquake Activity

City Distance Mag. Time & Date
No recent earthquake activity has been reported nearby.
Minimum magnitude displayed is 2.5.

Coastal Water Temperatures

Place Temperature
No Stations Reporting

Nearby Weather Stations

Station Location Temp. Dew Point Humidity Wind Precip. Elev Updated Type
Valentine Nebraska EW3958, Valentine, NE 59.9 °F 60 °F 99% NE  at  0.0 mph 0.00 in / hr 2585 ft 6:33 AM CDT Rapid Fire

Show More Stations Show Fewer Stations